Time;durP1;ratioP1;P1;durP2;ratioP2;P2;SDS_P1;SDS_P2;PMS_P1;PMS_P2;Temp;Humidity;BMP_temperature;BMP_pressure;BME280_temperature;BME280_humidity;BME280_pressure;Samples;Min_cycle;Max_cycle;Signal;HPM_P1;HPM_P2
2021/03/08 00:00:44;;;;;;;30.50;18.07;;;;;;;;;;4751130;30;20229;-80
2021/03/08 00:03:11;;;;;;;28.50;18.13;;;;;;;;;;4750238;30;20244;-85
2021/03/08 00:05:39;;;;;;;32.90;18.33;;;;;;;;;;4748375;30;20248;-83
2021/03/08 00:08:07;;;;;;;36.80;18.90;;;;;;;;;;4749797;30;20253;-79
2021/03/08 00:10:34;;;;;;;32.80;19.47;;;;;;;;;;4736054;30;20254;-79
2021/03/08 00:13:03;;;;;;;31.60;18.77;;;;;;;;;;4733161;30;20623;-79
2021/03/08 00:15:31;;;;;;;30.70;18.40;;;;;;;;;;4744086;30;20241;-78
2021/03/08 00:17:59;;;;;;;33.60;20.60;;;;;;;;;;4748223;30;20226;-78
2021/03/08 00:20:28;;;;;;;29.97;19.00;;;;;;;;;;4750213;30;20617;-79
2021/03/08 00:22:56;;;;;;;32.10;20.10;;;;;;;;;;4749375;30;20226;-82
2021/03/08 00:25:26;;;;;;;32.67;19.50;;;;;;;;;;4749034;30;20236;-82
2021/03/08 00:27:53;;;;;;;31.13;19.63;;;;;;;;;;4734254;30;20487;-79
2021/03/08 00:30:22;;;;;;;36.40;20.47;;;;;;;;;;4740944;30;20250;-79
2021/03/08 00:32:50;;;;;;;36.93;21.20;;;;;;;;;;4746871;30;20231;-80
2021/03/08 00:35:18;;;;;;;35.57;20.73;;;;;;;;;;4748846;30;20241;-80
2021/03/08 00:37:47;;;;;;;36.73;20.97;;;;;;;;;;4751594;30;20413;-78
2021/03/08 00:40:16;;;;;;;31.53;20.43;;;;;;;;;;4727951;30;20244;-79
2021/03/08 00:42:44;;;;;;;31.40;19.83;;;;;;;;;;4749139;30;20357;-78
2021/03/08 00:45:14;;;;;;;33.23;20.53;;;;;;;;;;4735238;30;20242;-79
2021/03/08 00:47:44;;;;;;;34.57;20.20;;;;;;;;;;4750210;30;20238;-78
2021/03/08 00:50:16;;;;;;;38.37;20.97;;;;;;;;;;4746286;30;20478;-81
2021/03/08 00:52:44;;;;;;;39.23;21.70;;;;;;;;;;4744270;30;20231;-81
2021/03/08 00:55:13;;;;;;;35.23;20.07;;;;;;;;;;4748180;30;20245;-79
2021/03/08 00:57:41;;;;;;;31.23;19.23;;;;;;;;;;4748263;30;20236;-83
2021/03/08 01:00:11;;;;;;;34.83;20.13;;;;;;;;;;4753533;30;20637;-81
2021/03/08 01:02:45;;;;;;;33.37;21.13;;;;;;;;;;4747387;30;20254;-79
2021/03/08 01:05:19;;;;;;;31.87;20.10;;;;;;;;;;4746300;30;20253;-83
2021/03/08 01:07:48;;;;;;;29.40;18.70;;;;;;;;;;4733451;30;20243;-79
2021/03/08 01:10:20;;;;;;;32.87;20.27;;;;;;;;;;4751075;30;20237;-81
2021/03/08 01:12:48;;;;;;;29.30;18.47;;;;;;;;;;4750753;30;20236;-79
2021/03/08 01:15:18;;;;;;;32.57;19.57;;;;;;;;;;4746787;30;20231;-79
2021/03/08 01:17:46;;;;;;;31.33;18.93;;;;;;;;;;4758308;30;20756;-80
2021/03/08 01:20:16;;;;;;;36.67;20.17;;;;;;;;;;4749002;30;20245;-80
2021/03/08 01:22:44;;;;;;;30.67;19.17;;;;;;;;;;4752899;30;20648;-78
2021/03/08 01:25:18;;;;;;;34.43;19.90;;;;;;;;;;4750021;30;20246;-79
2021/03/08 01:27:46;;;;;;;34.40;19.20;;;;;;;;;;4738207;30;20234;-80
2021/03/08 01:30:20;;;;;;;32.13;17.97;;;;;;;;;;4749856;30;20250;-79
2021/03/08 01:32:49;;;;;;;31.87;19.30;;;;;;;;;;4732127;30;20246;-78
2021/03/08 01:35:17;;;;;;;30.13;18.73;;;;;;;;;;4748612;30;20230;-79
2021/03/08 01:37:49;;;;;;;32.33;18.77;;;;;;;;;;4734455;30;20238;-82
2021/03/08 01:40:17;;;;;;;32.40;18.37;;;;;;;;;;4749862;30;20234;-79
2021/03/08 01:42:45;;;;;;;31.50;16.97;;;;;;;;;;4746714;30;20218;-78
2021/03/08 01:45:15;;;;;;;29.03;17.17;;;;;;;;;;4751049;30;20245;-78
2021/03/08 01:47:43;;;;;;;30.17;17.17;;;;;;;;;;4749501;30;20705;-78
2021/03/08 01:50:17;;;;;;;32.13;18.57;;;;;;;;;;4749478;30;20238;-78
2021/03/08 01:52:45;;;;;;;28.83;17.60;;;;;;;;;;4752410;30;20238;-80
2021/03/08 01:55:13;;;;;;;31.43;19.53;;;;;;;;;;4750637;30;20241;-78
2021/03/08 01:57:46;;;;;;;30.90;18.47;;;;;;;;;;4745005;30;20246;-82
2021/03/08 02:00:22;;;;;;;31.93;19.67;;;;;;;;;;4729901;30;20245;-79
2021/03/08 02:02:51;;;;;;;31.33;19.03;;;;;;;;;;4735932;30;20248;-79
2021/03/08 02:05:23;;;;;;;32.47;17.33;;;;;;;;;;4738835;30;20636;-79
2021/03/08 02:07:52;;;;;;;28.50;17.77;;;;;;;;;;4748996;30;20235;-80
2021/03/08 02:10:19;;;;;;;29.90;17.73;;;;;;;;;;4745288;30;20238;-78
2021/03/08 02:13:13;;;;;;;31.23;17.70;;;;;;;;;;4756235;30;20709;-79
2021/03/08 02:15:50;;;;;;;33.53;18.43;;;;;;;;;;4742565;30;20230;-78
2021/03/08 02:18:26;;;;;;;33.43;18.57;;;;;;;;;;4750902;30;20241;-81
2021/03/08 02:21:03;;;;;;;34.13;18.67;;;;;;;;;;4765479;30;20241;-79
2021/03/08 02:24:22;;;;;;;30.60;18.37;;;;;;;;;;4755023;30;20226;-79
2021/03/08 02:26:51;;;;;;;28.07;18.10;;;;;;;;;;4729384;30;20238;-79
2021/03/08 02:29:54;;;;;;;32.10;18.67;;;;;;;;;;4751587;30;20249;-80
2021/03/08 02:32:28;;;;;;;32.57;20.87;;;;;;;;;;4753942;30;20218;-79
2021/03/08 02:35:06;;;;;;;32.43;20.97;;;;;;;;;;4749633;30;20607;-79
2021/03/08 02:37:41;;;;;;;30.80;20.17;;;;;;;;;;4738884;30;20226;-78
2021/03/08 02:40:13;;;;;;;32.10;21.83;;;;;;;;;;4744046;30;20217;-85
2021/03/08 02:42:43;;;;;;;29.70;21.50;;;;;;;;;;4777953;29;20226;-87
2021/03/08 02:45:25;;;;;;;33.33;23.10;;;;;;;;;;4759494;30;20248;-79
2021/03/08 02:47:54;;;;;;;34.60;23.67;;;;;;;;;;4727581;30;20237;-78
2021/03/08 02:50:26;;;;;;;33.73;23.53;;;;;;;;;;4754824;30;20616;-78
2021/03/08 02:52:56;;;;;;;34.17;22.47;;;;;;;;;;4752789;30;20230;-79
2021/03/08 02:55:30;;;;;;;31.63;22.60;;;;;;;;;;4754504;30;20242;-79
2021/03/08 02:58:00;;;;;;;32.83;23.00;;;;;;;;;;4771187;30;20397;-78
2021/03/08 03:00:29;;;;;;;32.13;23.73;;;;;;;;;;4769077;30;20432;-78
2021/03/08 03:02:58;;;;;;;32.43;22.67;;;;;;;;;;4757117;30;20246;-79
2021/03/08 03:05:26;;;;;;;32.07;22.37;;;;;;;;;;4754756;30;20242;-80
2021/03/08 03:07:54;;;;;;;38.13;24.43;;;;;;;;;;4755482;30;20670;-79
2021/03/08 03:10:28;;;;;;;36.40;23.87;;;;;;;;;;4739632;30;20206;-80
2021/03/08 03:12:56;;;;;;;31.50;23.43;;;;;;;;;;4753849;30;20214;-79
2021/03/08 03:15:24;;;;;;;32.53;22.60;;;;;;;;;;4755000;30;20241;-79
2021/03/08 03:17:52;;;;;;;34.60;21.73;;;;;;;;;;4754115;30;20206;-80
2021/03/08 03:20:22;;;;;;;32.33;22.40;;;;;;;;;;4735946;30;20242;-79
2021/03/08 03:22:50;;;;;;;29.83;21.93;;;;;;;;;;4748358;30;20222;-78
2021/03/08 03:25:19;;;;;;;34.40;22.17;;;;;;;;;;4753325;30;20238;-79
2021/03/08 03:27:54;;;;;;;31.07;21.10;;;;;;;;;;4736058;30;20667;-80
2021/03/08 03:30:25;;;;;;;36.03;21.50;;;;;;;;;;4743228;30;20670;-79
2021/03/08 03:32:53;;;;;;;32.33;21.17;;;;;;;;;;4753787;30;20210;-80
2021/03/08 03:35:36;;;;;;;33.70;21.50;;;;;;;;;;4751629;30;20234;-80
2021/03/08 03:38:06;;;;;;;33.17;22.67;;;;;;;;;;4743708;30;20218;-79
2021/03/08 03:40:33;;;;;;;31.10;21.73;;;;;;;;;;4753268;30;20234;-79
2021/03/08 03:43:01;;;;;;;28.50;21.00;;;;;;;;;;4737241;30;20238;-80
2021/03/08 03:45:32;;;;;;;28.40;21.03;;;;;;;;;;4741273;30;20235;-78
2021/03/08 03:47:59;;;;;;;28.87;21.10;;;;;;;;;;4735317;30;20723;-79
2021/03/08 03:50:28;;;;;;;31.33;20.87;;;;;;;;;;4751706;30;20238;-79
2021/03/08 03:52:57;;;;;;;28.60;19.63;;;;;;;;;;4727222;30;20647;-79
2021/03/08 03:55:25;;;;;;;27.07;18.77;;;;;;;;;;4743407;30;20251;-79
2021/03/08 03:58:03;;;;;;;29.13;18.33;;;;;;;;;;4728027;30;20745;-82
2021/03/08 04:00:34;;;;;;;27.27;18.67;;;;;;;;;;4736890;30;20239;-79
2021/03/08 04:03:05;;;;;;;26.63;18.87;;;;;;;;;;4736545;30;20725;-78
2021/03/08 04:05:40;;;;;;;27.67;18.83;;;;;;;;;;4752477;30;20242;-79
2021/03/08 04:08:11;;;;;;;30.30;19.90;;;;;;;;;;4750279;30;20247;-78
2021/03/08 04:10:39;;;;;;;29.27;18.37;;;;;;;;;;4753329;30;20241;-80
2021/03/08 04:13:11;;;;;;;28.93;19.10;;;;;;;;;;4752289;30;20245;-79
2021/03/08 04:15:39;;;;;;;24.77;18.13;;;;;;;;;;4753064;30;20258;-79
2021/03/08 04:18:10;;;;;;;31.40;18.13;;;;;;;;;;4743160;30;20249;-79
2021/03/08 04:20:39;;;;;;;28.07;20.03;;;;;;;;;;4745331;30;20238;-78
2021/03/08 04:23:11;;;;;;;31.07;19.87;;;;;;;;;;4760833;30;20238;-78
2021/03/08 04:25:40;;;;;;;29.73;19.87;;;;;;;;;;4746696;30;20241;-79
2021/03/08 04:28:08;;;;;;;29.30;19.87;;;;;;;;;;4740402;30;20726;-79
2021/03/08 04:30:36;;;;;;;30.80;20.90;;;;;;;;;;4738689;30;20217;-79
2021/03/08 04:33:04;;;;;;;30.80;21.70;;;;;;;;;;4751472;30;20215;-82
2021/03/08 04:35:32;;;;;;;30.90;20.73;;;;;;;;;;4748900;30;20256;-79
2021/03/08 04:38:00;;;;;;;27.43;21.10;;;;;;;;;;4759867;30;20234;-80
2021/03/08 04:40:28;;;;;;;28.33;20.47;;;;;;;;;;4775856;29;20240;-80
2021/03/08 04:42:56;;;;;;;31.80;20.30;;;;;;;;;;4775447;29;20215;-84
2021/03/08 04:45:24;;;;;;;29.90;21.03;;;;;;;;;;4772372;29;20226;-83
2021/03/08 04:47:51;;;;;;;31.97;22.97;;;;;;;;;;4768569;30;20230;-79
2021/03/08 04:50:19;;;;;;;31.20;20.67;;;;;;;;;;4751816;30;20229;-79
2021/03/08 04:52:48;;;;;;;30.67;22.27;;;;;;;;;;4746257;30;20230;-79
2021/03/08 04:55:16;;;;;;;32.40;21.47;;;;;;;;;;4756246;30;20468;-79
2021/03/08 04:57:45;;;;;;;32.90;21.97;;;;;;;;;;4751918;30;20238;-79
2021/03/08 05:00:14;;;;;;;32.53;21.90;;;;;;;;;;4752371;30;20218;-79
2021/03/08 05:02:44;;;;;;;28.70;20.77;;;;;;;;;;4738382;30;20230;-79
2021/03/08 05:05:18;;;;;;;29.63;21.67;;;;;;;;;;4747304;30;20230;-79
2021/03/08 05:07:47;;;;;;;29.83;21.10;;;;;;;;;;4744139;30;20235;-79
2021/03/08 05:10:16;;;;;;;32.70;22.60;;;;;;;;;;4746960;30;20241;-79
2021/03/08 05:12:45;;;;;;;29.13;20.27;;;;;;;;;;4745855;30;20238;-79
2021/03/08 05:15:14;;;;;;;34.50;22.73;;;;;;;;;;4735734;29;20237;-82
2021/03/08 05:17:42;;;;;;;29.63;21.20;;;;;;;;;;4736772;30;20230;-79
2021/03/08 05:20:12;;;;;;;30.40;20.33;;;;;;;;;;4749806;30;20245;-79
2021/03/08 05:22:42;;;;;;;31.70;20.97;;;;;;;;;;4745542;30;20234;-79
2021/03/08 05:25:11;;;;;;;34.10;22.57;;;;;;;;;;4749958;30;20609;-79
2021/03/08 05:27:41;;;;;;;29.23;21.37;;;;;;;;;;4737600;30;20245;-79
2021/03/08 05:30:13;;;;;;;32.43;22.20;;;;;;;;;;4750949;30;20238;-79
2021/03/08 05:33:03;;;;;;;31.40;23.47;;;;;;;;;;4754624;30;20221;-80
2021/03/08 05:35:32;;;;;;;30.53;22.60;;;;;;;;;;4777292;29;20246;-81
2021/03/08 05:38:01;;;;;;;31.03;22.37;;;;;;;;;;4760021;29;20230;-79
2021/03/08 05:40:31;;;;;;;29.30;21.37;;;;;;;;;;4728181;30;20245;-79
2021/03/08 05:43:03;;;;;;;31.60;21.43;;;;;;;;;;4770023;29;20236;-79
2021/03/08 05:45:34;;;;;;;31.17;21.50;;;;;;;;;;4750573;30;20236;-80
2021/03/08 05:48:38;;;;;;;29.50;21.77;;;;;;;;;;4742592;30;20260;-78
2021/03/08 05:51:43;;;;;;;30.97;22.13;;;;;;;;;;4741897;30;20606;-79
2021/03/08 05:54:40;;;;;;;28.07;22.13;;;;;;;;;;4750237;30;20234;-79
2021/03/08 05:57:16;;;;;;;31.33;22.80;;;;;;;;;;4738226;30;20251;-79
2021/03/08 06:00:04;;;;;;;29.87;21.90;;;;;;;;;;4754362;30;20234;-79
2021/03/08 06:02:53;;;;;;;29.97;21.37;;;;;;;;;;4749923;30;20237;-78
2021/03/08 06:05:56;;;;;;;30.93;22.03;;;;;;;;;;4764396;30;20244;-78
2021/03/08 06:09:04;;;;;;;29.50;21.13;;;;;;;;;;4735795;30;20233;-79
2021/03/08 06:11:33;;;;;;;31.33;22.27;;;;;;;;;;4752678;30;20234;-78
2021/03/08 06:14:03;;;;;;;36.10;21.43;;;;;;;;;;4746642;30;20241;-78
2021/03/08 06:16:32;;;;;;;28.90;20.53;;;;;;;;;;4747519;30;20238;-78
2021/03/08 06:19:01;;;;;;;34.13;23.20;;;;;;;;;;4739173;30;20232;-78
2021/03/08 06:21:31;;;;;;;27.07;20.40;;;;;;;;;;4738765;30;20236;-78
2021/03/08 06:24:01;;;;;;;27.83;20.70;;;;;;;;;;4749680;30;20654;-79
2021/03/08 06:26:30;;;;;;;27.73;20.47;;;;;;;;;;4752103;30;20234;-79
2021/03/08 06:28:58;;;;;;;28.27;20.63;;;;;;;;;;4754916;30;20236;-79
2021/03/08 06:31:26;;;;;;;33.83;21.03;;;;;;;;;;4757963;30;20225;-80
2021/03/08 06:33:58;;;;;;;28.10;20.60;;;;;;;;;;4772418;30;20216;-79
2021/03/08 06:36:27;;;;;;;32.27;20.87;;;;;;;;;;4760443;30;20226;-79
2021/03/08 06:38:55;;;;;;;26.57;20.03;;;;;;;;;;4768365;30;20229;-80
2021/03/08 06:41:23;;;;;;;31.40;20.37;;;;;;;;;;4756474;30;20243;-78
2021/03/08 06:43:51;;;;;;;28.60;20.53;;;;;;;;;;4753923;30;20207;-78
2021/03/08 06:46:18;;;;;;;27.00;19.00;;;;;;;;;;4732049;30;20234;-79
2021/03/08 06:48:46;;;;;;;26.83;19.77;;;;;;;;;;4747718;30;20226;-78
2021/03/08 06:51:28;;;;;;;25.40;19.47;;;;;;;;;;4749462;30;20214;-78
2021/03/08 06:53:56;;;;;;;26.73;19.40;;;;;;;;;;4757192;30;20709;-79
2021/03/08 06:56:29;;;;;;;29.17;19.57;;;;;;;;;;4757263;30;20231;-79
2021/03/08 06:59:05;;;;;;;28.30;19.27;;;;;;;;;;4759758;30;20240;-79
2021/03/08 07:01:33;;;;;;;28.63;19.33;;;;;;;;;;4761584;30;20238;-79
2021/03/08 07:04:17;;;;;;;36.40;18.77;;;;;;;;;;4742465;30;20226;-80
2021/03/08 07:06:58;;;;;;;27.87;19.63;;;;;;;;;;4759280;30;20230;-79
2021/03/08 07:09:26;;;;;;;29.27;19.97;;;;;;;;;;4758983;30;20717;-80
2021/03/08 07:12:05;;;;;;;24.17;19.07;;;;;;;;;;4757989;30;20229;-79
2021/03/08 07:14:33;;;;;;;26.73;18.87;;;;;;;;;;4748954;30;20249;-79
2021/03/08 07:17:01;;;;;;;23.87;17.53;;;;;;;;;;4756413;30;20245;-79
2021/03/08 07:19:29;;;;;;;24.63;18.83;;;;;;;;;;4740857;30;20243;-80
2021/03/08 07:21:57;;;;;;;29.80;20.00;;;;;;;;;;4740964;30;20242;-80
2021/03/08 07:24:24;;;;;;;26.40;18.33;;;;;;;;;;4757172;30;20218;-80
2021/03/08 07:26:53;;;;;;;24.23;18.60;;;;;;;;;;4756203;30;20617;-80
2021/03/08 07:29:29;;;;;;;23.30;17.57;;;;;;;;;;4753510;30;20242;-80
2021/03/08 07:31:57;;;;;;;23.27;16.07;;;;;;;;;;4744065;30;20221;-80
2021/03/08 07:34:45;;;;;;;23.27;17.57;;;;;;;;;;4763734;30;20206;-79
2021/03/08 07:37:14;;;;;;;25.87;16.97;;;;;;;;;;4752291;30;20231;-80
2021/03/08 07:39:51;;;;;;;25.30;17.87;;;;;;;;;;4742285;30;20242;-80
2021/03/08 07:42:20;;;;;;;25.47;17.13;;;;;;;;;;4756987;30;20233;-79
2021/03/08 07:44:48;;;;;;;26.83;17.27;;;;;;;;;;4741295;30;20706;-79
2021/03/08 07:47:17;;;;;;;22.57;14.13;;;;;;;;;;4754257;30;20369;-79
2021/03/08 07:49:45;;;;;;;25.87;15.60;;;;;;;;;;4752696;30;20246;-80
2021/03/08 07:52:17;;;;;;;21.77;14.17;;;;;;;;;;4764943;30;20238;-79
2021/03/08 07:54:52;;;;;;;21.53;13.60;;;;;;;;;;4749169;30;20234;-78
2021/03/08 07:57:20;;;;;;;21.03;13.53;;;;;;;;;;4735872;30;20237;-79
2021/03/08 07:59:47;;;;;;;27.30;14.70;;;;;;;;;;4754305;30;20233;-80
2021/03/08 08:02:15;;;;;;;22.37;14.00;;;;;;;;;;4738320;30;20745;-81
2021/03/08 08:05:00;;;;;;;21.47;14.70;;;;;;;;;;4750005;30;20732;-79
2021/03/08 08:07:31;;;;;;;21.90;14.30;;;;;;;;;;4749712;30;20247;-79
2021/03/08 08:10:01;;;;;;;26.33;15.30;;;;;;;;;;4752086;30;20238;-82
2021/03/08 08:12:33;;;;;;;22.67;14.70;;;;;;;;;;4749996;30;20241;-82
2021/03/08 08:15:12;;;;;;;26.90;13.97;;;;;;;;;;4750870;30;20234;-79
2021/03/08 08:17:41;;;;;;;22.97;14.33;;;;;;;;;;4755053;30;20234;-82
2021/03/08 08:20:10;;;;;;;24.93;14.90;;;;;;;;;;4729851;30;20234;-83
2021/03/08 08:22:44;;;;;;;20.77;14.20;;;;;;;;;;4749878;30;20234;-79
2021/03/08 08:25:19;;;;;;;23.43;15.47;;;;;;;;;;4743136;30;20245;-81
2021/03/08 08:27:52;;;;;;;19.93;13.97;;;;;;;;;;4752834;30;20229;-81
2021/03/08 08:30:22;;;;;;;21.97;14.03;;;;;;;;;;4754452;30;20255;-83
2021/03/08 08:32:52;;;;;;;20.60;14.37;;;;;;;;;;4753387;30;20234;-79
2021/03/08 08:35:28;;;;;;;22.80;14.30;;;;;;;;;;4749909;30;20231;-81
2021/03/08 08:38:20;;;;;;;20.43;14.70;;;;;;;;;;4748311;30;20242;-80
2021/03/08 08:41:20;;;;;;;25.20;14.20;;;;;;;;;;4747088;30;20231;-84
2021/03/08 08:43:49;;;;;;;21.03;14.23;;;;;;;;;;4739982;30;20525;-80
2021/03/08 08:46:25;;;;;;;19.73;13.93;;;;;;;;;;4748369;30;20257;-80
2021/03/08 08:49:04;;;;;;;21.57;14.33;;;;;;;;;;4738679;30;20232;-79
2021/03/08 08:51:48;;;;;;;20.63;13.63;;;;;;;;;;4749754;30;20234;-85
2021/03/08 08:54:56;;;;;;;20.83;13.90;;;;;;;;;;4732361;30;20249;-82
2021/03/08 08:57:23;;;;;;;20.63;14.87;;;;;;;;;;4730794;30;20597;-79
2021/03/08 09:00:14;;;;;;;22.47;14.33;;;;;;;;;;4745456;30;20723;-83
2021/03/08 09:02:42;;;;;;;19.83;13.63;;;;;;;;;;4746105;30;20248;-83
2021/03/08 09:05:41;;;;;;;21.23;13.87;;;;;;;;;;4744536;30;20241;-80
2021/03/08 09:08:27;;;;;;;21.70;14.57;;;;;;;;;;4740435;30;20236;-80
2021/03/08 09:10:56;;;;;;;22.77;14.27;;;;;;;;;;4747420;30;20217;-81
2021/03/08 09:13:25;;;;;;;19.77;13.80;;;;;;;;;;4745182;30;20231;-83
2021/03/08 09:15:54;;;;;;;21.60;14.03;;;;;;;;;;4753346;30;20293;-81
2021/03/08 09:18:35;;;;;;;20.77;13.80;;;;;;;;;;4753092;30;20259;-79
2021/03/08 09:21:22;;;;;;;19.37;13.70;;;;;;;;;;4760429;30;20233;-79
2021/03/08 09:23:50;;;;;;;18.97;13.40;;;;;;;;;;4743300;30;20237;-79
2021/03/08 09:26:18;;;;;;;17.90;13.00;;;;;;;;;;4745802;30;20272;-81
2021/03/08 09:28:50;;;;;;;19.43;14.13;;;;;;;;;;4745507;30;20737;-79
2021/03/08 09:31:22;;;;;;;20.20;14.53;;;;;;;;;;4746689;30;20237;-79
2021/03/08 09:33:51;;;;;;;21.10;13.53;;;;;;;;;;4746717;30;20234;-79
2021/03/08 09:36:20;;;;;;;19.43;15.67;;;;;;;;;;4745517;30;20257;-82
2021/03/08 09:38:50;;;;;;;22.90;14.93;;;;;;;;;;4741550;30;20309;-82
2021/03/08 09:41:28;;;;;;;19.13;13.80;;;;;;;;;;4742733;30;20786;-84
2021/03/08 09:43:57;;;;;;;19.37;13.50;;;;;;;;;;4727585;30;20242;-83
2021/03/08 09:46:25;;;;;;;20.30;15.10;;;;;;;;;;4730130;30;20252;-83
2021/03/08 09:48:55;;;;;;;18.90;13.93;;;;;;;;;;4744195;30;20612;-79
2021/03/08 09:51:23;;;;;;;22.40;14.43;;;;;;;;;;4747482;30;20844;-79
2021/03/08 09:53:54;;;;;;;21.47;14.77;;;;;;;;;;4728792;30;20749;-83
2021/03/08 09:56:26;;;;;;;18.63;13.57;;;;;;;;;;4730423;30;20589;-80
2021/03/08 09:59:00;;;;;;;18.00;13.30;;;;;;;;;;4746086;30;20696;-90
2021/03/08 10:01:28;;;;;;;16.87;13.90;;;;;;;;;;4744840;30;20616;-82
2021/03/08 10:03:57;;;;;;;21.13;15.17;;;;;;;;;;4738837;30;20242;-80
2021/03/08 10:06:45;;;;;;;20.63;14.73;;;;;;;;;;4742659;30;20254;-84
2021/03/08 10:09:17;;;;;;;18.13;13.70;;;;;;;;;;4743043;30;20725;-80
2021/03/08 10:11:46;;;;;;;19.73;14.30;;;;;;;;;;4745120;30;20358;-83
2021/03/08 10:14:23;;;;;;;22.03;14.17;;;;;;;;;;4725682;30;20230;-87
2021/03/08 10:17:03;;;;;;;19.40;14.23;;;;;;;;;;4753990;30;20241;-82
2021/03/08 10:19:33;;;;;;;16.37;13.33;;;;;;;;;;4738945;30;20249;-82
2021/03/08 10:22:02;;;;;;;15.57;13.10;;;;;;;;;;4726543;30;20246;-79
2021/03/08 10:24:33;;;;;;;19.00;14.37;;;;;;;;;;4740095;30;20234;-80
2021/03/08 10:27:09;;;;;;;18.30;14.83;;;;;;;;;;4741024;30;20268;-81
2021/03/08 10:29:38;;;;;;;18.03;14.17;;;;;;;;;;4724273;30;20238;-80
2021/03/08 10:32:07;;;;;;;18.57;14.50;;;;;;;;;;4737751;30;20550;-80
2021/03/08 10:34:34;;;;;;;18.37;15.27;;;;;;;;;;4741238;30;20241;-80
2021/03/08 10:37:09;;;;;;;17.63;13.90;;;;;;;;;;4740974;29;21041;-80
2021/03/08 10:39:37;;;;;;;19.33;15.53;;;;;;;;;;4745762;30;20257;-80
2021/03/08 10:42:06;;;;;;;17.97;14.27;;;;;;;;;;4745055;30;20230;-80
2021/03/08 10:44:34;;;;;;;17.03;14.60;;;;;;;;;;4729608;30;20237;-81
2021/03/08 10:47:02;;;;;;;17.80;13.87;;;;;;;;;;4742190;30;20242;-81
2021/03/08 10:49:47;;;;;;;16.80;13.67;;;;;;;;;;4748434;30;20604;-80
2021/03/08 10:52:14;;;;;;;15.03;13.43;;;;;;;;;;4742792;30;20246;-81
2021/03/08 10:54:42;;;;;;;18.47;14.83;;;;;;;;;;4745977;30;20241;-80
2021/03/08 10:57:10;;;;;;;19.63;15.33;;;;;;;;;;4743674;30;20250;-83
2021/03/08 10:59:45;;;;;;;17.43;15.20;;;;;;;;;;4744533;30;20311;-85
2021/03/08 11:02:15;;;;;;;15.77;12.83;;;;;;;;;;4737738;30;20721;-86
2021/03/08 11:04:44;;;;;;;16.33;14.30;;;;;;;;;;4757791;30;20238;-86
2021/03/08 11:07:31;;;;;;;18.40;14.63;;;;;;;;;;4741654;30;20230;-80
2021/03/08 11:09:58;;;;;;;16.23;14.45;;;;;;;;;;4745074;30;20241;-82
2021/03/08 11:12:27;;;;;;;15.85;14.15;;;;;;;;;;4744907;30;20229;-83
2021/03/08 11:14:56;;;;;;;16.02;14.43;;;;;;;;;;4747358;29;20241;-81
2021/03/08 11:17:31;;;;;;;16.85;13.25;;;;;;;;;;4760917;30;20224;-84
2021/03/08 11:20:07;;;;;;;16.05;14.18;;;;;;;;;;4767598;29;20210;-85
2021/03/08 11:23:01;;;;;;;15.50;13.93;;;;;;;;;;4765277;30;20236;-84
2021/03/08 11:25:35;;;;;;;14.93;13.52;;;;;;;;;;4752431;30;20222;-82
2021/03/08 11:28:06;;;;;;;16.50;13.68;;;;;;;;;;4766899;29;20226;-86
2021/03/08 11:30:35;;;;;;;15.05;13.43;;;;;;;;;;4769401;29;20225;-85
2021/03/08 11:33:07;;;;;;;16.23;13.32;;;;;;;;;;4735292;30;20238;-79
2021/03/08 11:35:37;;;;;;;15.02;13.52;;;;;;;;;;4748497;30;20245;-79
2021/03/08 11:38:06;;;;;;;14.02;12.60;;;;;;;;;;4729822;30;20238;-82
2021/03/08 11:40:35;;;;;;;15.32;12.60;;;;;;;;;;4743964;30;20233;-80
2021/03/08 11:43:04;;;;;;;14.13;12.63;;;;;;;;;;4745623;29;20234;-80
2021/03/08 11:45:32;;;;;;;15.25;13.75;;;;;;;;;;4741301;30;20237;-79
2021/03/08 11:48:01;;;;;;;15.65;14.07;;;;;;;;;;4735400;30;20705;-83
2021/03/08 11:50:30;;;;;;;15.15;13.73;;;;;;;;;;4739176;30;20230;-79
2021/03/08 11:52:58;;;;;;;15.60;13.63;;;;;;;;;;4743125;30;20230;-83
2021/03/08 11:59:57;;;;;;;14.70;13.23;;;;;;;;;;4743931;30;20245;-78
2021/03/08 12:02:25;;;;;;;15.13;13.68;;;;;;;;;;4740829;30;20690;-81
2021/03/08 12:04:55;;;;;;;14.20;12.88;;;;;;;;;;4743855;30;20238;-81
2021/03/08 12:07:22;;;;;;;15.45;13.75;;;;;;;;;;4744284;30;20238;-82
2021/03/08 12:09:50;;;;;;;13.95;12.50;;;;;;;;;;4742157;30;20245;-80
2021/03/08 12:12:17;;;;;;;15.75;14.25;;;;;;;;;;4741787;29;20241;-79
2021/03/08 12:14:45;;;;;;;15.98;14.00;;;;;;;;;;4739121;30;20710;-81
2021/03/08 12:17:13;;;;;;;14.35;12.95;;;;;;;;;;4738058;30;20234;-82
2021/03/08 12:19:47;;;;;;;15.35;13.82;;;;;;;;;;4746461;30;20238;-79
2021/03/08 12:22:15;;;;;;;14.90;13.50;;;;;;;;;;4726883;30;20239;-82
2021/03/08 12:24:42;;;;;;;14.25;12.95;;;;;;;;;;4723262;30;20237;-78
2021/03/08 12:27:10;;;;;;;14.20;12.93;;;;;;;;;;4741310;30;20253;-79
2021/03/08 12:29:38;;;;;;;13.80;12.40;;;;;;;;;;4756836;30;20229;-80
2021/03/08 12:32:06;;;;;;;13.25;11.95;;;;;;;;;;4737933;30;20230;-79
2021/03/08 12:34:35;;;;;;;15.75;14.15;;;;;;;;;;4742779;30;20234;-78
2021/03/08 12:37:03;;;;;;;14.25;12.95;;;;;;;;;;4743396;30;20256;-79
2021/03/08 12:39:30;;;;;;;14.85;13.45;;;;;;;;;;4745175;29;20234;-78
2021/03/08 12:42:16;;;;;;;16.08;12.88;;;;;;;;;;4744197;30;20246;-79
2021/03/08 12:44:44;;;;;;;14.52;13.02;;;;;;;;;;4743802;30;20234;-79
2021/03/08 12:47:11;;;;;;;14.07;12.60;;;;;;;;;;4740304;30;20226;-81
2021/03/08 12:49:40;;;;;;;13.60;11.80;;;;;;;;;;4742912;30;20238;-83
2021/03/08 12:52:08;;;;;;;13.88;12.50;;;;;;;;;;4736899;30;20242;-80
2021/03/08 12:54:35;;;;;;;14.30;12.90;;;;;;;;;;4735340;30;20586;-82
2021/03/08 12:59:52;;;;;;;13.95;12.70;;;;;;;;;;4732252;30;20227;-79
2021/03/08 13:02:20;;;;;;;13.45;12.30;;;;;;;;;;4731148;30;20234;-82
2021/03/08 13:04:48;;;;;;;13.68;12.48;;;;;;;;;;4731321;30;20620;-78
2021/03/08 13:07:15;;;;;;;14.60;13.30;;;;;;;;;;4722402;30;22421;-80
2021/03/08 13:09:43;;;;;;;14.13;12.73;;;;;;;;;;4733136;30;20235;-78
2021/03/08 13:12:11;;;;;;;15.32;13.77;;;;;;;;;;4742161;30;20714;-79
2021/03/08 13:14:38;;;;;;;14.68;13.20;;;;;;;;;;4741619;30;20238;-81
2021/03/08 13:17:10;;;;;;;13.85;12.55;;;;;;;;;;4725903;30;20242;-78
2021/03/08 13:19:37;;;;;;;13.90;12.60;;;;;;;;;;4742853;30;20748;-78
2021/03/08 13:22:07;;;;;;;14.82;13.43;;;;;;;;;;4726143;30;20230;-79
2021/03/08 13:24:34;;;;;;;14.23;12.93;;;;;;;;;;4728218;30;20254;-79
2021/03/08 13:27:06;;;;;;;13.90;12.55;;;;;;;;;;4740511;30;20234;-83
2021/03/08 13:29:34;;;;;;;14.32;12.85;;;;;;;;;;4742436;30;20234;-78
2021/03/08 13:32:02;;;;;;;13.75;12.40;;;;;;;;;;4742053;30;20255;-80
2021/03/08 13:34:30;;;;;;;14.07;12.85;;;;;;;;;;4730091;30;20241;-81
2021/03/08 13:36:58;;;;;;;14.15;12.75;;;;;;;;;;4744100;30;20729;-79
2021/03/08 13:39:36;;;;;;;13.88;12.25;;;;;;;;;;4755460;30;20247;-81
2021/03/08 13:42:05;;;;;;;14.45;13.05;;;;;;;;;;4743501;30;20238;-79
2021/03/08 13:44:32;;;;;;;14.73;13.25;;;;;;;;;;4726246;30;20238;-79
2021/03/08 13:47:00;;;;;;;14.23;12.82;;;;;;;;;;4740874;30;23423;-78
2021/03/08 13:49:28;;;;;;;14.05;12.43;;;;;;;;;;4743984;30;20242;-80
2021/03/08 13:51:56;;;;;;;14.20;11.98;;;;;;;;;;4727406;30;20249;-80
2021/03/08 13:54:23;;;;;;;14.43;13.00;;;;;;;;;;4741949;30;20241;-81
2021/03/08 13:56:52;;;;;;;15.32;13.82;;;;;;;;;;4738965;30;20234;-80
2021/03/08 13:59:20;;;;;;;14.00;12.48;;;;;;;;;;4741750;30;20234;-78
2021/03/08 14:01:48;;;;;;;13.63;12.43;;;;;;;;;;4758288;30;20241;-79
2021/03/08 14:04:18;;;;;;;14.82;13.25;;;;;;;;;;4738870;30;20234;-79
2021/03/08 14:06:47;;;;;;;15.48;13.98;;;;;;;;;;4743885;30;20243;-78
2021/03/08 14:09:15;;;;;;;15.60;13.93;;;;;;;;;;4740081;30;20241;-78
2021/03/08 14:11:43;;;;;;;14.40;13.10;;;;;;;;;;4728857;30;20241;-77
2021/03/08 14:14:11;;;;;;;15.38;13.13;;;;;;;;;;4740079;29;20715;-79
2021/03/08 14:16:39;;;;;;;13.73;12.27;;;;;;;;;;4740107;30;20263;-82
2021/03/08 14:19:07;;;;;;;14.32;13.02;;;;;;;;;;4731272;30;20713;-79
2021/03/08 14:21:35;;;;;;;15.07;13.48;;;;;;;;;;4765970;29;20214;-87
2021/03/08 14:24:02;;;;;;;14.70;13.05;;;;;;;;;;4769427;29;20230;-88
2021/03/08 14:26:30;;;;;;;14.27;12.75;;;;;;;;;;4753418;30;20246;-79
2021/03/08 14:28:58;;;;;;;13.45;12.10;;;;;;;;;;4736332;30;20230;-81
2021/03/08 14:31:27;;;;;;;14.35;12.75;;;;;;;;;;4743758;30;20238;-82
2021/03/08 14:33:54;;;;;;;14.77;11.95;;;;;;;;;;4747811;30;20578;-80
2021/03/08 14:36:22;;;;;;;15.10;12.27;;;;;;;;;;4744570;30;20748;-84
2021/03/08 14:38:51;;;;;;;15.95;13.13;;;;;;;;;;4747063;30;20821;-80
2021/03/08 14:41:19;;;;;;;13.17;11.77;;;;;;;;;;4729611;30;20248;-80
2021/03/08 14:43:48;;;;;;;14.47;12.60;;;;;;;;;;4747300;30;20649;-83
2021/03/08 14:46:16;;;;;;;12.07;10.77;;;;;;;;;;4744446;30;20242;-80
2021/03/08 14:48:44;;;;;;;12.97;11.57;;;;;;;;;;4727503;30;20238;-87